Time;durP1;ratioP1;P1;durP2;ratioP2;P2;SDS_P1;SDS_P2;PMS_P1;PMS_P2;Temp;Humidity;BMP_temperature;BMP_pressure;BME280_temperature;BME280_humidity;BME280_pressure;Samples;Min_cycle;Max_cycle;Signal;HPM_P1;HPM_P2
2021/12/22 00:02:19;;;;;;;;;;;;;;;0.81;57.55;101499.75;4960058;28;6775;-71
2021/12/22 00:04:47;;;;;;;;;;;;;;;0.82;57.77;101501.56;4961375;28;6804;-71
2021/12/22 00:07:14;;;;;;;;;;;;;;;0.83;57.93;101502.44;4960979;28;6983;-72
2021/12/22 00:09:42;;;;;;;;;;;;;;;0.85;57.92;101500.97;4958699;28;7868;-71
2021/12/22 00:12:08;;;;;;;;;;;;;;;0.85;57.93;101500.97;4963026;28;6828;-71
2021/12/22 00:14:34;;;;;;;;;;;;;;;0.85;57.94;101490.84;4960416;28;6986;-72
2021/12/22 00:17:00;;;;;;;;;;;;;;;0.86;57.88;101495.16;4959982;28;7823;-72
2021/12/22 00:19:26;;;;;;;;;;;;;;;0.85;57.40;101492.50;4945204;28;6879;-72
2021/12/22 00:21:51;;;;;;;;;;;;;;;0.84;57.63;101499.16;4964090;28;6867;-71
2021/12/22 00:24:17;;;;;;;;;;;;;;;0.82;57.31;101490.53;4959281;28;6775;-71
2021/12/22 00:26:43;;;;;;;;;;;;;;;0.80;57.42;101492.91;4963556;28;7466;-71
2021/12/22 00:29:09;;;;;;;;;;;;;;;0.78;57.13;101501.06;4957161;28;6832;-71
2021/12/22 00:31:43;;;;;;;;;;;;;;;0.77;57.71;101506.81;4959407;28;6915;-71
2021/12/22 00:34:17;;;;;;;;;;;;;;;0.75;57.55;101498.19;4945113;28;6963;-71
2021/12/22 00:36:44;;;;;;;;;;;;;;;0.72;57.62;101502.94;4960492;28;6828;-72
2021/12/22 00:39:10;;;;;;;;;;;;;;;0.69;57.80;101496.84;4937029;28;7261;-71
2021/12/22 00:41:36;;;;;;;;;;;;;;;0.67;57.66;101494.88;4960069;28;6800;-71
2021/12/22 00:44:03;;;;;;;;;;;;;;;0.65;57.79;101496.38;4960405;28;6879;-71
2021/12/22 00:46:31;;;;;;;;;;;;;;;0.62;57.32;101479.25;4961856;28;6812;-71
2021/12/22 00:48:57;;;;;;;;;;;;;;;0.61;57.72;101480.00;4959977;28;6880;-71
2021/12/22 00:51:23;;;;;;;;;;;;;;;0.60;57.61;101478.22;4945089;28;7287;-71
2021/12/22 00:53:49;;;;;;;;;;;;;;;0.61;57.58;101484.13;4953229;28;6938;-71
2021/12/22 00:56:15;;;;;;;;;;;;;;;0.56;57.62;101473.56;4958749;28;7065;-71
2021/12/22 00:58:40;;;;;;;;;;;;;;;0.56;57.58;101478.59;4934163;28;7305;-72
2021/12/22 01:01:06;;;;;;;;;;;;;;;0.52;57.70;101481.56;4960011;28;6837;-71
2021/12/22 01:03:35;;;;;;;;;;;;;;;0.52;57.40;101482.44;4959221;28;7179;-71
2021/12/22 01:06:04;;;;;;;;;;;;;;;0.50;57.36;101483.91;4959461;28;7246;-71
2021/12/22 01:08:30;;;;;;;;;;;;;;;0.50;57.69;101488.94;4958418;28;6812;-71
2021/12/22 01:10:56;;;;;;;;;;;;;;;0.50;57.46;101488.06;4960562;28;6812;-71
2021/12/22 01:13:22;;;;;;;;;;;;;;;0.50;57.66;101490.59;4959655;28;7202;-72
2021/12/22 01:15:48;;;;;;;;;;;;;;;0.50;57.43;101485.53;4957342;28;6989;-71
2021/12/22 01:18:26;;;;;;;;;;;;;;;0.50;57.97;101490.59;4960541;28;6812;-71
2021/12/22 01:21:09;;;;;;;;;;;;;;;0.49;57.53;101498.91;4945675;28;6824;-72
2021/12/22 01:23:47;;;;;;;;;;;;;;;0.47;57.71;101501.25;4958476;28;6975;-71
2021/12/22 01:26:13;;;;;;;;;;;;;;;0.46;57.83;101501.97;4956043;28;6812;-71
2021/12/22 01:28:42;;;;;;;;;;;;;;;0.44;57.75;101508.50;4959999;28;6792;-71
2021/12/22 01:31:14;;;;;;;;;;;;;;;0.42;57.76;101504.88;4958704;28;6816;-71
2021/12/22 01:33:40;;;;;;;;;;;;;;;0.43;57.94;101510.84;4958789;28;6824;-71
2021/12/22 01:36:06;;;;;;;;;;;;;;;0.42;57.53;101507.41;4959294;28;6787;-71
2021/12/22 01:38:32;;;;;;;;;;;;;;;0.43;57.79;101513.38;4937840;28;7220;-71
2021/12/22 01:40:58;;;;;;;;;;;;;;;0.41;57.41;101509.06;4943925;28;6796;-71
2021/12/22 01:43:23;;;;;;;;;;;;;;;0.42;57.32;101512.47;4919412;28;1071234;-71
2021/12/22 01:51:54;;;;;;;;;;;;;;;0.40;57.70;101503.84;4959417;28;6900;-72
2021/12/22 01:54:19;;;;;;;;;;;;;;;0.41;57.97;101500.59;4962391;28;7071;-72
2021/12/22 01:56:47;;;;;;;;;;;;;;;0.43;58.14;101496.59;4962039;28;7178;-71
2021/12/22 01:59:15;;;;;;;;;;;;;;;0.44;58.04;101484.88;4960899;28;7058;-71
2021/12/22 02:01:42;;;;;;;;;;;;;;;0.48;58.28;101492.94;4963813;28;7081;-71
2021/12/22 02:04:11;;;;;;;;;;;;;;;0.51;58.46;101489.84;4965273;28;6804;-71
2021/12/22 02:06:48;;;;;;;;;;;;;;;0.54;57.96;101483.50;4960005;28;6811;-72
2021/12/22 02:09:33;;;;;;;;;;;;;;;0.61;58.28;101484.13;4947779;28;7756;-72
2021/12/22 02:12:00;;;;;;;;;;;;;;;0.63;57.96;101488.63;4964984;28;8144;-72
2021/12/22 02:14:26;;;;;;;;;;;;;;;0.67;58.20;101480.63;4964407;28;7007;-72
2021/12/22 02:16:52;;;;;;;;;;;;;;;0.68;58.09;101481.53;4962014;28;7297;-71
2021/12/22 02:19:18;;;;;;;;;;;;;;;0.70;58.46;101475.00;4948102;28;7131;-71
2021/12/22 02:21:50;;;;;;;;;;;;;;;0.72;58.00;101470.13;4963995;28;6780;-71
2021/12/22 02:24:16;;;;;;;;;;;;;;;0.75;58.26;101478.94;4960115;28;7015;-72
2021/12/22 02:26:52;;;;;;;;;;;;;;;0.79;58.40;101480.16;4945140;28;6969;-72
2021/12/22 02:29:21;;;;;;;;;;;;;;;0.81;58.73;101477.03;4941949;28;7060;-72
2021/12/22 02:32:45;;;;;;;;;;;;;;;0.86;58.48;101477.50;4964278;28;6966;-72
2021/12/22 02:34:48;;;;;;;;;;;;;;;0.88;58.66;101481.09;4960766;28;6883;-72
2021/12/22 02:37:18;;;;;;;;;;;;;;;0.93;58.72;101479.06;4961861;28;6971;-72
2021/12/22 02:39:51;;;;;;;;;;;;;;;0.95;58.14;101483.50;4949316;28;7026;-72
2021/12/22 02:42:20;;;;;;;;;;;;;;;0.98;58.05;101487.13;4946784;28;7272;-71
2021/12/22 02:44:46;;;;;;;;;;;;;;;0.99;57.99;101481.31;4960979;28;7023;-71
2021/12/22 02:47:24;;;;;;;;;;;;;;;0.99;58.05;101476.28;4961793;28;6872;-72
2021/12/22 02:49:50;;;;;;;;;;;;;;;0.99;57.77;101489.78;4960623;28;7031;-72
2021/12/22 02:52:17;;;;;;;;;;;;;;;0.98;57.88;101492.16;4961953;28;6784;-71
2021/12/22 02:54:52;;;;;;;;;;;;;;;0.96;58.08;101489.47;4963878;28;6824;-71
2021/12/22 02:57:32;;;;;;;;;;;;;;;0.96;57.86;101489.47;4960421;28;6987;-71
2021/12/22 03:03:03;;;;;;;;;;;;;;;0.89;57.39;101476.94;4933689;28;6900;-72
2021/12/22 03:05:29;;;;;;;;;;;;;;;0.85;57.53;101475.72;4964718;28;7313;-72
2021/12/22 03:07:55;;;;;;;;;;;;;;;0.82;57.49;101477.94;4964933;28;6941;-71
2021/12/22 03:10:22;;;;;;;;;;;;;;;0.80;57.57;101471.84;4965424;28;6812;-71
2021/12/22 03:12:52;;;;;;;;;;;;;;;0.78;57.23;101469.13;4964986;28;6876;-71
2021/12/22 03:15:19;;;;;;;;;;;;;;;0.75;57.69;101466.31;4948593;28;6816;-72
2021/12/22 03:17:47;;;;;;;;;;;;;;;0.73;57.52;101471.91;4959251;28;6863;-71
2021/12/22 03:20:14;;;;;;;;;;;;;;;0.72;57.05;101477.69;4948817;28;6804;-71
2021/12/22 03:22:44;;;;;;;;;;;;;;;0.68;57.37;101482.44;4965351;28;6808;-72
2021/12/22 03:25:15;;;;;;;;;;;;;;;0.68;57.72;101479.00;4964019;28;6827;-72
2021/12/22 03:27:44;;;;;;;;;;;;;;;0.64;57.49;101480.31;4946067;28;6832;-72
2021/12/22 03:30:13;;;;;;;;;;;;;;;0.62;57.50;101479.25;4968181;28;7262;-72
2021/12/22 03:32:40;;;;;;;;;;;;;;;0.59;57.40;101493.19;4963871;28;6804;-71
2021/12/22 03:35:06;;;;;;;;;;;;;;;0.54;57.21;101485.13;4981699;28;6979;-71
2021/12/22 03:37:32;;;;;;;;;;;;;;;0.50;57.02;101480.50;4964960;28;6992;-72
2021/12/22 03:39:58;;;;;;;;;;;;;;;0.45;56.71;101481.63;4964287;28;7322;-72
2021/12/22 03:42:23;;;;;;;;;;;;;;;0.38;57.48;101480.09;4980749;28;8148;-72
2021/12/22 03:44:49;;;;;;;;;;;;;;;0.34;57.22;101471.28;4966308;28;6791;-72
2021/12/22 03:47:15;;;;;;;;;;;;;;;0.31;57.05;101465.03;4947687;28;7210;-72
2021/12/22 03:49:40;;;;;;;;;;;;;;;0.25;56.89;101462.75;4929810;28;8087;-72
2021/12/22 03:52:07;;;;;;;;;;;;;;;0.22;57.08;101462.44;4963313;28;6796;-72
2021/12/22 03:54:33;;;;;;;;;;;;;;;0.18;57.08;101465.34;4965523;28;7054;-72
2021/12/22 03:56:58;;;;;;;;;;;;;;;0.13;57.08;101462.31;4948864;28;6784;-72
2021/12/22 03:59:24;;;;;;;;;;;;;;;0.08;57.29;101466.88;4965405;28;6792;-72
2021/12/22 04:01:51;;;;;;;;;;;;;;;0.06;57.45;101480.94;4942188;28;6943;-72
2021/12/22 04:04:18;;;;;;;;;;;;;;;0.02;57.05;101483.88;4963421;28;6792;-72
2021/12/22 04:06:47;;;;;;;;;;;;;;;0.00;57.01;101477.78;4960918;28;6815;-72
2021/12/22 04:09:15;;;;;;;;;;;;;;;-0.03;57.54;101490.03;4963014;28;7546;-71
2021/12/22 04:11:43;;;;;;;;;;;;;;;-0.04;57.07;101500.84;4960631;28;6800;-71
2021/12/22 04:14:09;;;;;;;;;;;;;;;-0.07;57.31;101495.50;4961930;28;7858;-71
2021/12/22 04:16:35;;;;;;;;;;;;;;;-0.09;57.41;101490.28;4945362;28;6816;-71
2021/12/22 04:19:01;;;;;;;;;;;;;;;-0.12;57.20;101484.91;4961498;28;6795;-71
2021/12/22 04:21:27;;;;;;;;;;;;;;;-0.12;56.73;101491.56;4961912;28;6990;-71
2021/12/22 04:23:53;;;;;;;;;;;;;;;-0.15;57.44;101484.56;4939223;28;6784;-71
2021/12/22 04:26:19;;;;;;;;;;;;;;;-0.19;57.33;101484.97;4961640;28;7624;-71
2021/12/22 04:28:45;;;;;;;;;;;;;;;-0.23;57.15;101496.34;4963096;28;6796;-72
2021/12/22 04:31:11;;;;;;;;;;;;;;;-0.26;57.23;101492.59;4942773;28;6871;-72
2021/12/22 04:33:37;;;;;;;;;;;;;;;-0.32;57.11;101497.84;4961036;28;6788;-72
2021/12/22 04:36:03;;;;;;;;;;;;;;;-0.35;57.53;101495.88;4945828;28;6784;-72
2021/12/22 04:38:29;;;;;;;;;;;;;;;-0.37;56.90;101494.84;4961177;28;6975;-71
2021/12/22 04:40:54;;;;;;;;;;;;;;;-0.39;57.82;101497.91;4962292;28;6784;-71
2021/12/22 04:43:20;;;;;;;;;;;;;;;-0.42;57.17;101494.34;4962357;28;6799;-72
2021/12/22 04:45:46;;;;;;;;;;;;;;;-0.45;57.17;101499.03;4943031;28;6800;-72
2021/12/22 04:48:12;;;;;;;;;;;;;;;-0.47;57.67;101495.47;4961626;28;7211;-71
2021/12/22 04:50:38;;;;;;;;;;;;;;;-0.49;57.21;101486.81;4960378;28;6811;-72
2021/12/22 04:53:14;;;;;;;;;;;;;;;-0.50;57.56;101480.00;4959073;28;7219;-72
2021/12/22 04:55:39;;;;;;;;;;;;;;;-0.51;57.45;101480.72;4955678;28;6816;-72
2021/12/22 04:58:06;;;;;;;;;;;;;;;-0.52;57.11;101476.41;4927761;28;7191;-72
2021/12/22 05:00:36;;;;;;;;;;;;;;;-0.53;57.23;101477.16;4958038;28;7003;-72
2021/12/22 05:03:02;;;;;;;;;;;;;;;-0.54;57.28;101477.88;4956773;28;7246;-72
2021/12/22 05:05:29;;;;;;;;;;;;;;;-0.55;57.30;101473.56;4957321;28;6840;-71
2021/12/22 05:07:55;;;;;;;;;;;;;;;-0.57;57.42;101473.41;4954824;28;6796;-72
2021/12/22 05:10:22;;;;;;;;;;;;;;;-0.57;57.65;101480.94;4960336;28;7023;-72
2021/12/22 05:12:48;;;;;;;;;;;;;;;-0.58;57.78;101481.69;4944208;28;7237;-72
2021/12/22 05:15:19;;;;;;;;;;;;;;;-0.56;57.73;101479.34;4959657;28;6955;-72
2021/12/22 05:20:14;;;;;;;;;;;;;;;-0.57;57.41;101482.59;4942710;28;6887;-72
2021/12/22 05:22:40;;;;;;;;;;;;;;;-0.58;57.72;101483.28;4959126;28;8319;-72
2021/12/22 05:25:09;;;;;;;;;;;;;;;-0.57;58.11;101487.63;4960357;28;6875;-72
2021/12/22 05:27:36;;;;;;;;;;;;;;;-0.58;57.20;101486.72;4942630;28;6813;-72
2021/12/22 05:30:05;;;;;;;;;;;;;;;-0.56;58.10;101485.25;4960073;28;6906;-72
2021/12/22 05:32:32;;;;;;;;;;;;;;;-0.54;57.88;101472.84;4960741;28;6975;-72
2021/12/22 05:35:00;;;;;;;;;;;;;;;-0.55;57.78;101466.03;4957425;28;7953;-72
2021/12/22 05:37:26;;;;;;;;;;;;;;;-0.53;57.93;101467.06;4974177;28;6796;-72
2021/12/22 05:39:55;;;;;;;;;;;;;;;-0.53;57.78;101457.00;4953312;28;6959;-72
2021/12/22 05:42:21;;;;;;;;;;;;;;;-0.50;57.57;101459.84;4957476;28;7230;-72
2021/12/22 05:44:46;;;;;;;;;;;;;;;-0.47;58.16;101455.16;4939842;28;6816;-71
2021/12/22 05:47:12;;;;;;;;;;;;;;;-0.42;58.27;101460.72;4955111;28;8031;-72
2021/12/22 05:49:38;;;;;;;;;;;;;;;-0.37;58.20;101466.25;4955627;28;6871;-72
2021/12/22 05:52:04;;;;;;;;;;;;;;;-0.34;58.72;101456.50;4955647;28;6792;-72
2021/12/22 05:54:30;;;;;;;;;;;;;;;-0.30;58.27;101458.59;4960466;28;7836;-72
2021/12/22 05:56:56;;;;;;;;;;;;;;;-0.28;58.40;101459.69;4955747;28;6954;-72
2021/12/22 05:59:21;;;;;;;;;;;;;;;-0.25;57.90;101461.63;4954930;28;7005;-72
2021/12/22 06:01:47;;;;;;;;;;;;;;;-0.24;58.30;101463.41;4942326;28;6922;-72
2021/12/22 06:04:12;;;;;;;;;;;;;;;-0.23;58.05;101460.19;4959022;28;6865;-72
2021/12/22 06:06:38;;;;;;;;;;;;;;;-0.23;57.95;101456.03;4955268;28;7379;-72
2021/12/22 06:09:04;;;;;;;;;;;;;;;-0.23;58.00;101450.09;4956990;28;7382;-72
2021/12/22 06:11:31;;;;;;;;;;;;;;;-0.23;57.88;101445.06;4958653;28;6804;-72
2021/12/22 06:13:57;;;;;;;;;;;;;;;-0.23;58.05;101443.44;4956526;28;6883;-72
2021/12/22 06:16:24;;;;;;;;;;;;;;;-0.22;57.76;101441.81;4941117;28;7161;-72
2021/12/22 06:18:56;;;;;;;;;;;;;;;-0.22;58.05;101440.16;4955586;28;7274;-72
2021/12/22 06:21:22;;;;;;;;;;;;;;;-0.20;58.15;101441.22;4958445;28;7928;-72
2021/12/22 06:23:48;;;;;;;;;;;;;;;-0.17;58.21;101441.56;4939935;28;6883;-72
2021/12/22 06:26:14;;;;;;;;;;;;;;;-0.12;57.72;101443.69;4937878;28;7455;-72
2021/12/22 06:28:39;;;;;;;;;;;;;;;-0.09;58.55;101449.06;4952457;28;7144;-71
2021/12/22 06:31:06;;;;;;;;;;;;;;;-0.07;58.52;101445.09;4955302;28;7248;-71
2021/12/22 06:33:32;;;;;;;;;;;;;;;-0.04;57.83;101447.94;4958069;28;6903;-71
2021/12/22 06:35:59;;;;;;;;;;;;;;;-0.02;58.23;101446.47;4953629;28;6880;-71
2021/12/22 06:38:25;;;;;;;;;;;;;;;0.01;58.53;101444.28;4952141;28;6792;-71
2021/12/22 06:40:51;;;;;;;;;;;;;;;0.05;58.61;101453.03;4960044;28;6981;-71
2021/12/22 06:43:17;;;;;;;;;;;;;;;0.07;58.50;101447.44;4959458;28;6788;-71
2021/12/22 06:45:43;;;;;;;;;;;;;;;0.10;58.07;101446.88;4961140;28;7144;-71
2021/12/22 06:48:09;;;;;;;;;;;;;;;0.12;58.27;101441.28;4943221;28;7208;-71
2021/12/22 06:50:35;;;;;;;;;;;;;;;0.12;58.11;101441.28;4960881;28;6927;-72
2021/12/22 06:53:00;;;;;;;;;;;;;;;0.13;58.03;101444.69;4959338;28;6816;-72
2021/12/22 06:55:26;;;;;;;;;;;;;;;0.11;57.85;101439.50;4959828;28;7070;-72
2021/12/22 06:57:52;;;;;;;;;;;;;;;0.11;58.15;101436.97;4958483;28;6812;-72
2021/12/22 07:00:18;;;;;;;;;;;;;;;0.13;57.84;101445.59;4960443;28;7113;-72
2021/12/22 07:02:44;;;;;;;;;;;;;;;0.13;58.54;101443.06;4960428;28;7200;-71
2021/12/22 07:05:12;;;;;;;;;;;;;;;0.16;58.30;101441.59;4958769;28;6788;-71
2021/12/22 07:07:39;;;;;;;;;;;;;;;0.17;58.28;101440.88;4959518;28;6788;-71
2021/12/22 07:10:08;;;;;;;;;;;;;;;0.19;58.02;101442.81;4957811;28;6860;-72
2021/12/22 07:12:47;;;;;;;;;;;;;;;0.22;58.20;101432.19;4944606;28;7011;-72
2021/12/22 07:15:18;;;;;;;;;;;;;;;0.25;58.45;101442.56;4929742;28;7293;-72
2021/12/22 07:17:48;;;;;;;;;;;;;;;0.26;58.57;101440.22;4943785;28;6966;-72
2021/12/22 07:20:14;;;;;;;;;;;;;;;0.29;58.43;101437.16;4961340;28;6888;-72
2021/12/22 07:22:41;;;;;;;;;;;;;;;0.32;58.95;101434.03;4958318;28;7209;-72
2021/12/22 07:25:09;;;;;;;;;;;;;;;0.34;58.48;101432.56;4958384;28;7391;-71
2021/12/22 07:27:35;;;;;;;;;;;;;;;0.35;58.47;101434.38;4952713;28;7012;-71
2021/12/22 07:30:01;;;;;;;;;;;;;;;0.36;58.48;101439.56;4942640;28;6804;-72
2021/12/22 07:32:26;;;;;;;;;;;;;;;0.36;58.24;101432.00;4963014;28;6824;-72
2021/12/22 07:35:31;;;;;;;;;;;;;;;0.39;58.42;101432.34;4970868;28;6811;-71
2021/12/22 07:38:25;;;;;;;;;;;;;;;0.40;58.30;101441.69;4871791;29;7063;-71
2021/12/22 07:40:56;;;;;;;;;;;;;;;0.40;58.13;101446.72;4969661;28;6796;-71
2021/12/22 07:43:24;;;;;;;;;;;;;;;0.41;58.15;101448.53;4961275;28;6820;-71
2021/12/22 07:45:50;;;;;;;;;;;;;;;0.43;58.05;101450.31;4958142;28;7189;-71
2021/12/22 07:48:16;;;;;;;;;;;;;;;0.43;58.08;101447.78;4963055;28;7825;-71
2021/12/22 07:50:42;;;;;;;;;;;;;;;0.44;58.49;101454.63;4962854;28;6786;-71
2021/12/22 07:53:07;;;;;;;;;;;;;;;0.44;58.26;101457.13;4957049;28;7912;-71
2021/12/22 07:55:33;;;;;;;;;;;;;;;0.45;58.27;101451.34;4976152;28;7292;-71
2021/12/22 07:57:59;;;;;;;;;;;;;;;0.44;58.23;101445.44;4956682;28;6975;-71
2021/12/22 08:00:25;;;;;;;;;;;;;;;0.46;58.71;101440.53;4960706;28;7880;-71
2021/12/22 08:02:50;;;;;;;;;;;;;;;0.47;58.10;101434.75;4960750;28;6788;-71
2021/12/22 08:05:16;;;;;;;;;;;;;;;0.49;58.40;101439.22;4957338;28;7169;-71
2021/12/22 08:07:42;;;;;;;;;;;;;;;0.51;58.20;101435.22;4960423;28;6784;-71
2021/12/22 08:10:08;;;;;;;;;;;;;;;0.56;58.52;101443.28;4959252;28;6795;-71
2021/12/22 08:12:34;;;;;;;;;;;;;;;0.60;58.30;101441.97;4959077;28;6812;-71
2021/12/22 08:15:01;;;;;;;;;;;;;;;0.61;58.27;101444.66;4961269;28;6860;-71
2021/12/22 08:17:28;;;;;;;;;;;;;;;0.65;58.37;101446.75;4954336;28;7938;-71
2021/12/22 08:19:54;;;;;;;;;;;;;;;0.68;58.51;101446.19;4940703;28;6797;-71
2021/12/22 08:22:20;;;;;;;;;;;;;;;0.73;58.34;101444.16;4960978;28;6803;-71
2021/12/22 08:24:46;;;;;;;;;;;;;;;0.76;58.56;101435.28;4953873;28;7165;-71
2021/12/22 08:27:12;;;;;;;;;;;;;;;0.82;58.60;101440.06;4958341;28;6795;-71
2021/12/22 08:29:42;;;;;;;;;;;;;;;0.87;58.56;101443.97;4957939;28;7221;-71
2021/12/22 08:32:09;;;;;;;;;;;;;;;0.94;58.72;101437.94;4956892;28;6808;-71
2021/12/22 08:34:38;;;;;;;;;;;;;;;0.98;58.58;101434.09;4960882;28;7005;-71
2021/12/22 08:39:51;;;;;;;;;;;;;;;1.03;58.64;101426.25;4954986;28;7215;-71
2021/12/22 08:42:18;;;;;;;;;;;;;;;1.07;58.33;101420.75;4958946;28;8073;-71
2021/12/22 08:44:43;;;;;;;;;;;;;;;1.14;58.83;101426.47;4956761;28;6812;-71
2021/12/22 08:47:09;;;;;;;;;;;;;;;1.17;58.35;101420.09;4957639;28;6792;-72
2021/12/22 08:49:35;;;;;;;;;;;;;;;1.23;58.80;101423.22;4975951;28;7948;-72
2021/12/22 08:52:01;;;;;;;;;;;;;;;1.31;58.45;101428.16;4941935;28;7177;-71
2021/12/22 08:54:27;;;;;;;;;;;;;;;1.35;59.01;101423.59;4958637;28;6979;-71
2021/12/22 08:56:55;;;;;;;;;;;;;;;1.41;58.51;101427.47;4952984;28;6808;-71
2021/12/22 08:59:23;;;;;;;;;;;;;;;1.47;58.61;101425.56;4956551;28;6820;-71
2021/12/22 09:01:51;;;;;;;;;;;;;;;1.52;58.61;101420.22;4955548;28;6891;-72
2021/12/22 09:04:19;;;;;;;;;;;;;;;1.59;58.36;101420.84;4939371;28;7187;-72
2021/12/22 09:06:46;;;;;;;;;;;;;;;1.65;58.49;101431.59;4958403;28;6807;-71
2021/12/22 09:09:13;;;;;;;;;;;;;;;1.71;58.93;101427.13;4960178;28;6991;-72
2021/12/22 09:11:40;;;;;;;;;;;;;;;1.79;58.42;101417.81;4941663;28;6988;-73
2021/12/22 09:14:07;;;;;;;;;;;;;;;1.87;58.49;101418.56;4958276;28;6958;-71
2021/12/22 09:16:38;;;;;;;;;;;;;;;1.96;58.84;101421.09;4959882;28;6800;-71
2021/12/22 09:19:07;;;;;;;;;;;;;;;2.03;58.61;101418.44;4939832;28;7834;-71
2021/12/22 09:21:34;;;;;;;;;;;;;;;2.10;58.83;101423.34;4958400;28;7613;-71
2021/12/22 09:24:00;;;;;;;;;;;;;;;2.18;58.95;101427.53;4956123;28;7643;-71
2021/12/22 09:26:26;;;;;;;;;;;;;;;2.27;58.73;101435.13;4951466;28;7159;-71
2021/12/22 09:28:54;;;;;;;;;;;;;;;2.35;58.20;101420.69;4937603;28;8353;-71
2021/12/22 09:31:21;;;;;;;;;;;;;;;2.42;58.61;101420.53;4935396;28;8431;-71
2021/12/22 09:33:47;;;;;;;;;;;;;;;2.50;58.62;101426.34;4959208;28;6812;-71
2021/12/22 09:36:15;;;;;;;;;;;;;;;2.57;58.95;101423.66;4954915;28;7124;-71
2021/12/22 09:38:41;;;;;;;;;;;;;;;2.65;58.59;101424.38;4957433;28;7423;-71
2021/12/22 09:41:09;;;;;;;;;;;;;;;2.72;58.84;101423.38;4971931;28;8015;-71
2021/12/22 09:43:36;;;;;;;;;;;;;;;2.78;57.76;101429.00;4943154;28;6804;-71
2021/12/22 09:46:07;;;;;;;;;;;;;;;2.83;58.49;101422.75;4958051;28;7310;-71
2021/12/22 09:53:29;;;;;;;;;;;;;;;3.01;58.32;101422.72;4957499;28;9929;-71
2021/12/22 09:55:58;;;;;;;;;;;;;;;3.09;57.87;101425.97;4957690;28;7027;-71
2021/12/22 09:58:26;;;;;;;;;;;;;;;3.16;57.30;101420.75;4941247;28;6979;-71
2021/12/22 10:00:53;;;;;;;;;;;;;;;3.26;57.95;101419.94;4959207;28;7169;-71
2021/12/22 10:03:22;;;;;;;;;;;;;;;3.35;57.86;101407.28;4942720;28;6820;-71
2021/12/22 10:05:49;;;;;;;;;;;;;;;3.43;58.40;101406.34;4955886;28;7219;-71
2021/12/22 10:08:20;;;;;;;;;;;;;;;3.53;58.33;101403.91;4958741;28;7015;-72
2021/12/22 10:11:09;;;;;;;;;;;;;;;3.64;57.92;101399.81;4956374;28;7157;-72
2021/12/22 10:13:43;;;;;;;;;;;;;;;3.77;58.08;101408.53;4953369;28;7909;-72
2021/12/22 10:16:18;;;;;;;;;;;;;;;3.89;57.54;101407.13;4956221;28;6879;-72
2021/12/22 10:18:46;;;;;;;;;;;;;;;4.02;58.49;101404.06;4958305;28;6836;-72
2021/12/22 10:21:23;;;;;;;;;;;;;;;4.18;58.42;101393.66;4959316;28;6804;-72
2021/12/22 10:23:54;;;;;;;;;;;;;;;4.37;58.99;101388.56;4976405;28;6895;-72
2021/12/22 10:26:26;;;;;;;;;;;;;;;4.54;57.92;101385.00;4952047;28;6824;-72
2021/12/22 10:29:05;;;;;;;;;;;;;;;4.71;58.33;101390.63;4955722;28;6816;-72
2021/12/22 10:31:40;;;;;;;;;;;;;;;4.89;57.58;101390.47;4960895;28;7184;-72
2021/12/22 10:34:13;;;;;;;;;;;;;;;5.04;57.18;101384.19;4956145;28;6983;-72
2021/12/22 10:36:54;;;;;;;;;;;;;;;5.24;56.99;101383.34;4959296;28;6979;-72
2021/12/22 10:39:34;;;;;;;;;;;;;;;5.39;57.15;101371.03;4958055;28;6896;-72
2021/12/22 10:42:06;;;;;;;;;;;;;;;5.56;56.49;101374.09;4939838;28;7145;-72
2021/12/22 10:44:45;;;;;;;;;;;;;;;5.73;56.43;101367.88;4956402;28;7023;-72
2021/12/22 10:49:14;;;;;;;;;;;;;;;5.90;56.43;101363.31;4956547;28;6875;-72
2021/12/22 10:50:24;;;;;;;;;;;;;;;6.10;56.33;101359.88;4958432;28;6836;-72
2021/12/22 10:52:50;;;;;;;;;;;;;;;6.28;55.74;101349.38;4957396;28;8333;-72
2021/12/22 10:55:16;;;;;;;;;;;;;;;6.47;55.42;101352.69;4958261;28;7016;-72
2021/12/22 10:57:47;;;;;;;;;;;;;;;6.72;55.09;101349.50;4955519;28;7884;-72
2021/12/22 11:00:25;;;;;;;;;;;;;;;6.99;54.85;101349.00;4959792;28;6973;-72
2021/12/22 11:03:04;;;;;;;;;;;;;;;7.22;54.31;101348.22;4956160;28;6962;-72
2021/12/22 11:05:30;;;;;;;;;;;;;;;7.41;54.71;101347.06;4956444;28;6858;-72
2021/12/22 11:07:58;;;;;;;;;;;;;;;7.57;54.54;101344.91;4958492;28;7069;-72
2021/12/22 11:10:24;;;;;;;;;;;;;;;7.71;53.86;101345.97;4954195;28;6900;-72
2021/12/22 11:13:05;;;;;;;;;;;;;;;7.82;53.10;101341.63;4958626;28;7002;-72
2021/12/22 11:15:42;;;;;;;;;;;;;;;7.91;53.39;101333.78;4960048;28;7229;-72
2021/12/22 11:18:26;;;;;;;;;;;;;;;7.92;53.20;101330.44;4962042;28;8016;-71
2021/12/22 11:21:33;;;;;;;;;;;;;;;7.94;52.40;101318.69;4959555;28;7047;-72
2021/12/22 11:24:00;;;;;;;;;;;;;;;8.05;52.06;101320.34;4930029;28;7235;-72
2021/12/22 11:26:28;;;;;;;;;;;;;;;8.18;52.31;101322.13;4958208;28;6987;-72
2021/12/22 11:28:53;;;;;;;;;;;;;;;8.22;51.52;101322.38;4959466;28;6816;-71
2021/12/22 11:31:20;;;;;;;;;;;;;;;8.23;51.74;101316.50;4960415;28;7261;-72
2021/12/22 11:33:47;;;;;;;;;;;;;;;8.12;51.14;101302.94;4962526;28;8134;-72
2021/12/22 11:36:14;;;;;;;;;;;;;;;8.05;51.90;101304.16;4958209;28;6796;-72
2021/12/22 11:38:43;;;;;;;;;;;;;;;8.10;51.07;101305.38;4976640;28;8211;-71
2021/12/22 11:41:16;;;;;;;;;;;;;;;8.20;50.56;101307.81;4961130;28;6912;-71
2021/12/22 11:43:44;;;;;;;;;;;;;;;8.54;51.12;101299.13;4957061;28;6796;-71
2021/12/22 11:46:12;;;;;;;;;;;;;;;8.93;49.67;101294.16;4975879;28;6799;-71
2021/12/22 11:48:40;;;;;;;;;;;;;;;9.20;49.01;101299.41;4960528;28;6819;-71
2021/12/22 11:51:42;;;;;;;;;;;;;;;9.48;49.10;101296.16;4940497;28;6812;-71
2021/12/22 11:54:09;;;;;;;;;;;;;;;9.73;48.73;101283.28;4897458;29;6911;-72
2021/12/22 11:56:46;;;;;;;;;;;;;;;10.03;48.33;101281.72;4941319;28;7877;-72
2021/12/22 11:59:37;;;;;;;;;;;;;;;10.39;47.61;101283.19;4956937;28;7135;-72
2021/12/22 12:02:32;;;;;;;;;;;;;;;10.81;46.42;101274.63;4975263;28;6904;-72
2021/12/22 12:05:15;;;;;;;;;;;;;;;11.13;45.64;101268.00;4960764;28;6949;-71
2021/12/22 12:07:44;;;;;;;;;;;;;;;11.00;45.42;101268.03;4958548;28;7650;-71
2021/12/22 12:10:48;;;;;;;;;;;;;;;10.36;45.81;101267.63;4938689;28;6963;-71
2021/12/22 12:13:42;;;;;;;;;;;;;;;9.56;47.34;101256.59;4944415;28;6853;-71
2021/12/22 12:22:34;;;;;;;;;;;;;;;7.97;48.24;101266.97;4956922;28;7023;-72
2021/12/22 12:25:13;;;;;;;;;;;;;;;7.71;48.61;101255.75;4976127;28;6796;-72
2021/12/22 12:27:50;;;;;;;;;;;;;;;7.50;49.43;101253.38;4959452;28;7054;-72
2021/12/22 12:30:21;;;;;;;;;;;;;;;7.35;49.89;101255.69;4940159;28;7013;-72
2021/12/22 12:32:49;;;;;;;;;;;;;;;7.20;50.22;101252.88;4959350;28;6957;-71
2021/12/22 12:35:22;;;;;;;;;;;;;;;7.06;49.99;101264.56;4944558;28;6812;-72
2021/12/22 12:38:17;;;;;;;;;;;;;;;6.91;50.18;101259.19;4949502;28;7125;-72
2021/12/22 12:41:00;;;;;;;;;;;;;;;6.77;49.98;101253.94;4951136;28;6891;-72
2021/12/22 12:43:44;;;;;;;;;;;;;;;6.65;50.49;101250.44;4952081;28;6974;-72
2021/12/22 12:46:18;;;;;;;;;;;;;;;6.54;50.26;101249.63;4948167;28;6938;-71
2021/12/22 12:48:46;;;;;;;;;;;;;;;6.46;50.88;101249.00;4955542;28;7873;-71
2021/12/22 12:51:29;;;;;;;;;;;;;;;6.42;50.84;101257.19;4969224;28;7893;-71
2021/12/22 12:53:59;;;;;;;;;;;;;;;6.36;50.86;101252.50;4936252;28;7040;-71
2021/12/22 12:56:36;;;;;;;;;;;;;;;6.31;51.08;101247.81;4931606;28;7031;-71
2021/12/22 12:59:08;;;;;;;;;;;;;;;6.27;50.80;101235.59;4952581;28;6827;-72
2021/12/22 13:01:46;;;;;;;;;;;;;;;6.25;51.19;101240.59;4950286;28;7053;-72
2021/12/22 13:04:41;;;;;;;;;;;;;;;6.23;51.38;101237.91;4952195;28;6844;-71
2021/12/22 13:07:25;;;;;;;;;;;;;;;6.19;51.45;101233.34;4947172;28;6823;-71
2021/12/22 13:10:13;;;;;;;;;;;;;;;6.20;51.58;101239.31;4950462;28;6808;-72
2021/12/22 13:18:10;;;;;;;;;;;;;;;6.17;51.09;101234.00;4949672;28;7280;-71
2021/12/22 13:20:41;;;;;;;;;;;;;;;6.16;51.71;101228.00;4952048;28;6824;-72
2021/12/22 13:23:13;;;;;;;;;;;;;;;6.15;51.80;101222.81;4948045;28;7394;-71
2021/12/22 13:25:44;;;;;;;;;;;;;;;6.15;51.63;101218.59;4945480;28;7459;-72
2021/12/22 13:28:15;;;;;;;;;;;;;;;6.15;51.48;101223.69;4950110;28;6850;-71
2021/12/22 13:30:54;;;;;;;;;;;;;;;6.13;51.62;101217.59;4935623;28;7129;-71
2021/12/22 13:33:25;;;;;;;;;;;;;;;6.13;51.50;101215.03;4953382;28;7223;-71
2021/12/22 13:36:01;;;;;;;;;;;;;;;6.12;51.61;101220.91;4951828;28;6880;-72
2021/12/22 13:38:55;;;;;;;;;;;;;;;6.09;51.74;101218.13;4953077;28;7860;-72
2021/12/22 13:41:27;;;;;;;;;;;;;;;6.05;51.56;101214.44;4953628;28;7145;-72